Pagina principale
METAR-TAF:

METAR-TAF

Aeroporti :

Riohacha, Colombia

latitudine: 11-32N, longitudine: 072-56W, altezza: 4 m

Osservazione

Il bollettino è stato emesso 1 ora e 55 minuti fa, alle 00:00 UTC
Vento 10 kt da est
Temperature 32°C
Umidità 63%
Pressione 1009 hPa
Visibilità 10 km o più
nessuna nube inferiore a 1500 m e nessun cumulonembo

METAR: SKRH 210000Z 10010KT CAVOK 32/24 Q1009

Ora: 20:55 (01:55 UTC)


TAF: mancante

Osservazioni e previsioni meteorologiche di più di 4000 aeroporti (messaggi METAR e TAF).

Le stazioni disponibili sono rappresentate dai dischi gialli e rossi sulla carta.

Puntare il mouse per vedere il nome della stazione.

Clicca sopra per visualizzare le osservazioni e previsioni meteorologiche.

Per cambiare la mappa : fare clic sui pulsanti verdi con una croce nera per ingrandire, il pulsante verde con un trattino per diminuire, o sulla freccia verde per le mappe adiacenti.


METAR-TAF: